sensor_id;sensor_type;location;lat;lon;timestamp;P1;durP1;ratioP1;P2;durP2;ratioP2
55364;SDS011;41245;45.384;20.390;2023-03-23T00:02:11;106.57;;;53.47;;
55364;SDS011;41245;45.384;20.390;2023-03-23T00:04:37;95.95;;;54.63;;
55364;SDS011;41245;45.384;20.390;2023-03-23T00:07:03;103.35;;;53.58;;
55364;SDS011;41245;45.384;20.390;2023-03-23T00:09:29;87.97;;;50.05;;
55364;SDS011;41245;45.384;20.390;2023-03-23T00:11:59;93.88;;;50.53;;
55364;SDS011;41245;45.384;20.390;2023-03-23T00:14:30;100.88;;;51.33;;
55364;SDS011;41245;45.384;20.390;2023-03-23T00:17:06;88.80;;;51.47;;
55364;SDS011;41245;45.384;20.390;2023-03-23T00:19:32;96.82;;;50.95;;
55364;SDS011;41245;45.384;20.390;2023-03-23T00:21:59;98.78;;;52.38;;
55364;SDS011;41245;45.384;20.390;2023-03-23T00:24:25;90.07;;;52.58;;
55364;SDS011;41245;45.384;20.390;2023-03-23T00:26:51;95.88;;;51.60;;
55364;SDS011;41245;45.384;20.390;2023-03-23T00:29:19;90.35;;;50.17;;
55364;SDS011;41245;45.384;20.390;2023-03-23T00:31:46;85.40;;;46.47;;
55364;SDS011;41245;45.384;20.390;2023-03-23T00:34:12;93.22;;;48.20;;
55364;SDS011;41245;45.384;20.390;2023-03-23T00:36:44;84.97;;;45.83;;
55364;SDS011;41245;45.384;20.390;2023-03-23T00:39:10;85.47;;;48.00;;
55364;SDS011;41245;45.384;20.390;2023-03-23T00:41:36;93.78;;;50.67;;
55364;SDS011;41245;45.384;20.390;2023-03-23T00:44:03;95.90;;;48.83;;
55364;SDS011;41245;45.384;20.390;2023-03-23T00:46:29;99.45;;;51.70;;
55364;SDS011;41245;45.384;20.390;2023-03-23T00:48:55;102.47;;;52.58;;
55364;SDS011;41245;45.384;20.390;2023-03-23T00:51:23;95.10;;;53.35;;
55364;SDS011;41245;45.384;20.390;2023-03-23T00:53:49;99.35;;;51.13;;
55364;SDS011;41245;45.384;20.390;2023-03-23T00:56:15;107.32;;;53.58;;
55364;SDS011;41245;45.384;20.390;2023-03-23T00:58:41;104.65;;;54.80;;
55364;SDS011;41245;45.384;20.390;2023-03-23T01:01:08;106.18;;;54.30;;
55364;SDS011;41245;45.384;20.390;2023-03-23T01:03:34;105.40;;;51.83;;
55364;SDS011;41245;45.384;20.390;2023-03-23T01:06:08;93.32;;;49.35;;
55364;SDS011;41245;45.384;20.390;2023-03-23T01:08:37;86.30;;;46.28;;
55364;SDS011;41245;45.384;20.390;2023-03-23T01:11:10;81.10;;;43.85;;
55364;SDS011;41245;45.384;20.390;2023-03-23T01:13:36;96.97;;;44.22;;
55364;SDS011;41245;45.384;20.390;2023-03-23T01:16:02;80.47;;;38.28;;
55364;SDS011;41245;45.384;20.390;2023-03-23T01:18:28;73.50;;;40.47;;
55364;SDS011;41245;45.384;20.390;2023-03-23T01:20:55;83.00;;;40.80;;
55364;SDS011;41245;45.384;20.390;2023-03-23T01:23:21;70.85;;;36.78;;
55364;SDS011;41245;45.384;20.390;2023-03-23T01:25:47;70.82;;;38.00;;
55364;SDS011;41245;45.384;20.390;2023-03-23T01:28:14;65.13;;;36.00;;
55364;SDS011;41245;45.384;20.390;2023-03-23T01:30:40;71.95;;;37.58;;
55364;SDS011;41245;45.384;20.390;2023-03-23T01:33:06;76.03;;;37.92;;
55364;SDS011;41245;45.384;20.390;2023-03-23T01:35:32;62.40;;;33.90;;
55364;SDS011;41245;45.384;20.390;2023-03-23T01:37:58;62.22;;;34.45;;
55364;SDS011;41245;45.384;20.390;2023-03-23T01:40:26;72.20;;;38.60;;
55364;SDS011;41245;45.384;20.390;2023-03-23T01:42:52;66.35;;;36.75;;
55364;SDS011;41245;45.384;20.390;2023-03-23T01:47:45;63.95;;;36.65;;
55364;SDS011;41245;45.384;20.390;2023-03-23T01:50:12;58.78;;;31.15;;
55364;SDS011;41245;45.384;20.390;2023-03-23T01:52:38;61.78;;;33.53;;
55364;SDS011;41245;45.384;20.390;2023-03-23T01:55:04;61.25;;;32.88;;
55364;SDS011;41245;45.384;20.390;2023-03-23T01:57:31;57.17;;;30.25;;
55364;SDS011;41245;45.384;20.390;2023-03-23T01:59:57;59.78;;;30.42;;
55364;SDS011;41245;45.384;20.390;2023-03-23T02:02:25;53.53;;;30.48;;
55364;SDS011;41245;45.384;20.390;2023-03-23T02:04:51;53.83;;;31.38;;
55364;SDS011;41245;45.384;20.390;2023-03-23T02:07:20;59.28;;;32.65;;
55364;SDS011;41245;45.384;20.390;2023-03-23T02:09:46;52.70;;;29.98;;
55364;SDS011;41245;45.384;20.390;2023-03-23T02:12:13;56.33;;;31.35;;
55364;SDS011;41245;45.384;20.390;2023-03-23T02:14:39;54.40;;;30.02;;
55364;SDS011;41245;45.384;20.390;2023-03-23T02:17:08;56.88;;;30.50;;
55364;SDS011;41245;45.384;20.390;2023-03-23T02:28:04;49.80;;;29.38;;
55364;SDS011;41245;45.384;20.390;2023-03-23T02:30:31;55.65;;;29.92;;
55364;SDS011;41245;45.384;20.390;2023-03-23T02:35:44;52.03;;;31.92;;
55364;SDS011;41245;45.384;20.390;2023-03-23T02:38:18;45.28;;;29.17;;
55364;SDS011;41245;45.384;20.390;2023-03-23T02:40:47;53.13;;;31.17;;
55364;SDS011;41245;45.384;20.390;2023-03-23T02:43:15;52.35;;;31.58;;
55364;SDS011;41245;45.384;20.390;2023-03-23T02:45:42;47.40;;;30.08;;
55364;SDS011;41245;45.384;20.390;2023-03-23T02:48:09;59.08;;;31.33;;
55364;SDS011;41245;45.384;20.390;2023-03-23T02:50:36;52.63;;;31.15;;
55364;SDS011;41245;45.384;20.390;2023-03-23T02:53:04;50.05;;;30.20;;
55364;SDS011;41245;45.384;20.390;2023-03-23T02:55:31;53.28;;;30.73;;
55364;SDS011;41245;45.384;20.390;2023-03-23T02:57:57;51.55;;;30.50;;
55364;SDS011;41245;45.384;20.390;2023-03-23T03:00:26;52.42;;;30.08;;
55364;SDS011;41245;45.384;20.390;2023-03-23T03:02:53;50.75;;;30.50;;
55364;SDS011;41245;45.384;20.390;2023-03-23T03:05:28;49.03;;;30.17;;
55364;SDS011;41245;45.384;20.390;2023-03-23T03:10:26;54.40;;;29.42;;
55364;SDS011;41245;45.384;20.390;2023-03-23T03:12:55;49.40;;;31.20;;
55364;SDS011;41245;45.384;20.390;2023-03-23T03:18:23;51.40;;;31.17;;
55364;SDS011;41245;45.384;20.390;2023-03-23T03:20:43;52.80;;;30.65;;
55364;SDS011;41245;45.384;20.390;2023-03-23T03:23:10;61.45;;;33.55;;
55364;SDS011;41245;45.384;20.390;2023-03-23T03:25:38;68.53;;;33.08;;
55364;SDS011;41245;45.384;20.390;2023-03-23T03:28:05;61.65;;;34.22;;
55364;SDS011;41245;45.384;20.390;2023-03-23T03:30:32;61.63;;;34.50;;
55364;SDS011;41245;45.384;20.390;2023-03-23T03:32:59;54.53;;;32.47;;
55364;SDS011;41245;45.384;20.390;2023-03-23T03:35:28;60.70;;;34.00;;
55364;SDS011;41245;45.384;20.390;2023-03-23T03:37:55;58.08;;;32.10;;
55364;SDS011;41245;45.384;20.390;2023-03-23T03:40:23;56.05;;;34.78;;
55364;SDS011;41245;45.384;20.390;2023-03-23T03:42:49;62.38;;;35.55;;
55364;SDS011;41245;45.384;20.390;2023-03-23T03:45:17;55.10;;;34.25;;
55364;SDS011;41245;45.384;20.390;2023-03-23T03:47:43;60.85;;;33.30;;
55364;SDS011;41245;45.384;20.390;2023-03-23T03:50:09;55.95;;;32.38;;
55364;SDS011;41245;45.384;20.390;2023-03-23T03:52:35;51.58;;;31.88;;
55364;SDS011;41245;45.384;20.390;2023-03-23T03:55:03;54.90;;;33.63;;
55364;SDS011;41245;45.384;20.390;2023-03-23T03:57:29;55.13;;;32.35;;
55364;SDS011;41245;45.384;20.390;2023-03-23T03:59:55;59.75;;;33.47;;
55364;SDS011;41245;45.384;20.390;2023-03-23T04:02:21;57.28;;;34.67;;
55364;SDS011;41245;45.384;20.390;2023-03-23T04:04:47;67.13;;;33.13;;
55364;SDS011;41245;45.384;20.390;2023-03-23T04:07:14;55.42;;;32.72;;
55364;SDS011;41245;45.384;20.390;2023-03-23T04:09:41;58.35;;;34.20;;
55364;SDS011;41245;45.384;20.390;2023-03-23T04:12:08;57.53;;;32.75;;
55364;SDS011;41245;45.384;20.390;2023-03-23T04:14:34;52.55;;;31.13;;
55364;SDS011;41245;45.384;20.390;2023-03-23T04:17:00;55.63;;;31.92;;
55364;SDS011;41245;45.384;20.390;2023-03-23T04:19:26;59.10;;;34.55;;
55364;SDS011;41245;45.384;20.390;2023-03-23T04:21:53;62.83;;;35.80;;
55364;SDS011;41245;45.384;20.390;2023-03-23T04:24:20;70.15;;;41.97;;
55364;SDS011;41245;45.384;20.390;2023-03-23T04:26:46;82.05;;;45.05;;
55364;SDS011;41245;45.384;20.390;2023-03-23T04:29:12;82.45;;;45.33;;
55364;SDS011;41245;45.384;20.390;2023-03-23T04:31:38;71.97;;;41.97;;
55364;SDS011;41245;45.384;20.390;2023-03-23T04:34:05;73.93;;;41.30;;
55364;SDS011;41245;45.384;20.390;2023-03-23T04:36:31;63.05;;;37.45;;
55364;SDS011;41245;45.384;20.390;2023-03-23T04:38:58;68.20;;;39.85;;
55364;SDS011;41245;45.384;20.390;2023-03-23T04:41:25;67.95;;;40.78;;
55364;SDS011;41245;45.384;20.390;2023-03-23T04:43:52;68.30;;;40.53;;
55364;SDS011;41245;45.384;20.390;2023-03-23T04:46:21;76.72;;;39.67;;
55364;SDS011;41245;45.384;20.390;2023-03-23T04:48:47;78.03;;;39.65;;
55364;SDS011;41245;45.384;20.390;2023-03-23T04:51:13;65.20;;;39.67;;
55364;SDS011;41245;45.384;20.390;2023-03-23T04:53:39;66.68;;;37.60;;
55364;SDS011;41245;45.384;20.390;2023-03-23T04:56:06;62.03;;;37.75;;
55364;SDS011;41245;45.384;20.390;2023-03-23T04:58:32;67.47;;;37.50;;
55364;SDS011;41245;45.384;20.390;2023-03-23T05:01:01;63.85;;;37.88;;
55364;SDS011;41245;45.384;20.390;2023-03-23T05:03:29;65.45;;;39.53;;
55364;SDS011;41245;45.384;20.390;2023-03-23T05:05:55;65.68;;;38.45;;
55364;SDS011;41245;45.384;20.390;2023-03-23T05:08:22;73.10;;;41.58;;
55364;SDS011;41245;45.384;20.390;2023-03-23T05:10:53;84.75;;;40.38;;
55364;SDS011;41245;45.384;20.390;2023-03-23T05:13:19;83.47;;;43.38;;
55364;SDS011;41245;45.384;20.390;2023-03-23T05:15:45;83.82;;;43.35;;
55364;SDS011;41245;45.384;20.390;2023-03-23T05:18:11;83.63;;;43.38;;
55364;SDS011;41245;45.384;20.390;2023-03-23T05:20:37;90.30;;;44.78;;
55364;SDS011;41245;45.384;20.390;2023-03-23T05:23:04;79.35;;;45.83;;
55364;SDS011;41245;45.384;20.390;2023-03-23T05:25:30;79.63;;;42.38;;
55364;SDS011;41245;45.384;20.390;2023-03-23T05:28:01;76.07;;;41.53;;
55364;SDS011;41245;45.384;20.390;2023-03-23T05:30:27;76.85;;;43.92;;
55364;SDS011;41245;45.384;20.390;2023-03-23T05:32:54;85.75;;;43.20;;
55364;SDS011;41245;45.384;20.390;2023-03-23T05:35:20;69.70;;;42.45;;
55364;SDS011;41245;45.384;20.390;2023-03-23T05:37:47;71.70;;;41.03;;
55364;SDS011;41245;45.384;20.390;2023-03-23T05:40:13;77.22;;;40.03;;
55364;SDS011;41245;45.384;20.390;2023-03-23T05:42:40;84.22;;;44.70;;
55364;SDS011;41245;45.384;20.390;2023-03-23T05:45:07;75.00;;;42.50;;
55364;SDS011;41245;45.384;20.390;2023-03-23T05:47:33;84.50;;;44.35;;
55364;SDS011;41245;45.384;20.390;2023-03-23T05:49:59;74.88;;;43.33;;
55364;SDS011;41245;45.384;20.390;2023-03-23T05:52:26;77.55;;;42.95;;
55364;SDS011;41245;45.384;20.390;2023-03-23T05:54:52;79.97;;;43.45;;
55364;SDS011;41245;45.384;20.390;2023-03-23T05:57:18;82.88;;;40.63;;
55364;SDS011;41245;45.384;20.390;2023-03-23T05:59:46;64.97;;;41.00;;
55364;SDS011;41245;45.384;20.390;2023-03-23T06:02:12;77.78;;;39.72;;
55364;SDS011;41245;45.384;20.390;2023-03-23T06:04:41;73.43;;;40.47;;
55364;SDS011;41245;45.384;20.390;2023-03-23T06:07:08;67.78;;;39.22;;
55364;SDS011;41245;45.384;20.390;2023-03-23T06:09:38;72.50;;;37.33;;
55364;SDS011;41245;45.384;20.390;2023-03-23T06:12:05;60.47;;;35.85;;
55364;SDS011;41245;45.384;20.390;2023-03-23T06:14:31;55.05;;;33.95;;
55364;SDS011;41245;45.384;20.390;2023-03-23T06:16:58;51.60;;;32.40;;
55364;SDS011;41245;45.384;20.390;2023-03-23T06:19:24;55.40;;;33.88;;
55364;SDS011;41245;45.384;20.390;2023-03-23T06:21:51;67.85;;;35.00;;
55364;SDS011;41245;45.384;20.390;2023-03-23T06:24:18;68.35;;;34.63;;
55364;SDS011;41245;45.384;20.390;2023-03-23T06:26:44;59.03;;;34.95;;
55364;SDS011;41245;45.384;20.390;2023-03-23T06:29:10;58.35;;;33.08;;
55364;SDS011;41245;45.384;20.390;2023-03-23T06:31:43;56.63;;;33.45;;
55364;SDS011;41245;45.384;20.390;2023-03-23T06:34:10;46.05;;;31.63;;
55364;SDS011;41245;45.384;20.390;2023-03-23T06:36:36;51.42;;;33.70;;
55364;SDS011;41245;45.384;20.390;2023-03-23T06:39:03;52.20;;;33.17;;
55364;SDS011;41245;45.384;20.390;2023-03-23T06:41:30;58.17;;;32.33;;
55364;SDS011;41245;45.384;20.390;2023-03-23T06:43:56;47.42;;;29.67;;
55364;SDS011;41245;45.384;20.390;2023-03-23T06:46:22;58.53;;;32.05;;
55364;SDS011;41245;45.384;20.390;2023-03-23T06:48:48;53.83;;;30.58;;
55364;SDS011;41245;45.384;20.390;2023-03-23T06:51:15;51.97;;;31.17;;
55364;SDS011;41245;45.384;20.390;2023-03-23T06:53:41;48.38;;;28.50;;
55364;SDS011;41245;45.384;20.390;2023-03-23T06:56:07;50.58;;;28.65;;
55364;SDS011;41245;45.384;20.390;2023-03-23T06:58:33;46.92;;;28.80;;
55364;SDS011;41245;45.384;20.390;2023-03-23T07:01:00;45.92;;;29.92;;
55364;SDS011;41245;45.384;20.390;2023-03-23T07:03:26;43.92;;;29.35;;
55364;SDS011;41245;45.384;20.390;2023-03-23T07:05:53;43.47;;;26.90;;
55364;SDS011;41245;45.384;20.390;2023-03-23T07:08:19;41.22;;;26.23;;
55364;SDS011;41245;45.384;20.390;2023-03-23T07:10:45;41.97;;;25.40;;
55364;SDS011;41245;45.384;20.390;2023-03-23T07:13:11;45.25;;;26.10;;
55364;SDS011;41245;45.384;20.390;2023-03-23T07:15:38;35.92;;;23.20;;
55364;SDS011;41245;45.384;20.390;2023-03-23T07:18:04;34.42;;;23.60;;
55364;SDS011;41245;45.384;20.390;2023-03-23T07:20:30;39.80;;;23.83;;
55364;SDS011;41245;45.384;20.390;2023-03-23T07:22:57;33.60;;;22.50;;
55364;SDS011;41245;45.384;20.390;2023-03-23T07:25:23;44.00;;;22.60;;
55364;SDS011;41245;45.384;20.390;2023-03-23T07:27:49;38.03;;;22.80;;
55364;SDS011;41245;45.384;20.390;2023-03-23T07:30:15;36.85;;;22.65;;
55364;SDS011;41245;45.384;20.390;2023-03-23T07:32:41;35.30;;;20.73;;
55364;SDS011;41245;45.384;20.390;2023-03-23T07:35:08;34.00;;;20.60;;
55364;SDS011;41245;45.384;20.390;2023-03-23T07:37:34;30.13;;;20.73;;
55364;SDS011;41245;45.384;20.390;2023-03-23T07:40:01;37.83;;;22.90;;
55364;SDS011;41245;45.384;20.390;2023-03-23T07:42:39;28.90;;;19.58;;
55364;SDS011;41245;45.384;20.390;2023-03-23T07:45:05;30.70;;;18.73;;
55364;SDS011;41245;45.384;20.390;2023-03-23T07:47:31;29.48;;;19.58;;
55364;SDS011;41245;45.384;20.390;2023-03-23T07:49:57;38.08;;;21.10;;
55364;SDS011;41245;45.384;20.390;2023-03-23T07:52:23;31.20;;;18.15;;
55364;SDS011;41245;45.384;20.390;2023-03-23T07:54:50;27.52;;;18.48;;
55364;SDS011;41245;45.384;20.390;2023-03-23T07:57:16;32.50;;;18.60;;
55364;SDS011;41245;45.384;20.390;2023-03-23T07:59:42;36.25;;;19.73;;
55364;SDS011;41245;45.384;20.390;2023-03-23T08:02:08;34.60;;;19.98;;
55364;SDS011;41245;45.384;20.390;2023-03-23T08:04:35;37.33;;;19.52;;
55364;SDS011;41245;45.384;20.390;2023-03-23T08:07:02;33.28;;;18.73;;
55364;SDS011;41245;45.384;20.390;2023-03-23T08:09:29;34.88;;;18.85;;
55364;SDS011;41245;45.384;20.390;2023-03-23T08:11:55;30.42;;;18.38;;
55364;SDS011;41245;45.384;20.390;2023-03-23T08:14:22;33.38;;;18.83;;
55364;SDS011;41245;45.384;20.390;2023-03-23T08:16:51;28.40;;;19.23;;
55364;SDS011;41245;45.384;20.390;2023-03-23T08:19:17;29.83;;;18.35;;
55364;SDS011;41245;45.384;20.390;2023-03-23T08:21:44;37.45;;;19.80;;
55364;SDS011;41245;45.384;20.390;2023-03-23T08:24:09;24.70;;;17.08;;
55364;SDS011;41245;45.384;20.390;2023-03-23T08:26:36;23.63;;;17.17;;
55364;SDS011;41245;45.384;20.390;2023-03-23T08:29:03;30.58;;;18.67;;
55364;SDS011;41245;45.384;20.390;2023-03-23T08:31:29;29.95;;;17.77;;
55364;SDS011;41245;45.384;20.390;2023-03-23T08:33:55;22.60;;;15.63;;
55364;SDS011;41245;45.384;20.390;2023-03-23T08:36:25;29.23;;;17.67;;
55364;SDS011;41245;45.384;20.390;2023-03-23T08:38:51;29.80;;;18.03;;
55364;SDS011;41245;45.384;20.390;2023-03-23T08:41:17;29.58;;;17.63;;
55364;SDS011;41245;45.384;20.390;2023-03-23T08:43:43;30.80;;;18.73;;
55364;SDS011;41245;45.384;20.390;2023-03-23T08:46:09;26.00;;;16.20;;
55364;SDS011;41245;45.384;20.390;2023-03-23T08:48:36;25.40;;;15.93;;
55364;SDS011;41245;45.384;20.390;2023-03-23T08:51:03;26.48;;;15.23;;
55364;SDS011;41245;45.384;20.390;2023-03-23T08:53:30;32.97;;;16.75;;
55364;SDS011;41245;45.384;20.390;2023-03-23T08:55:56;20.77;;;15.57;;
55364;SDS011;41245;45.384;20.390;2023-03-23T08:58:22;26.35;;;14.23;;
55364;SDS011;41245;45.384;20.390;2023-03-23T09:00:49;26.35;;;14.13;;
55364;SDS011;41245;45.384;20.390;2023-03-23T09:03:15;19.90;;;15.20;;
55364;SDS011;41245;45.384;20.390;2023-03-23T09:05:42;26.63;;;16.42;;
55364;SDS011;41245;45.384;20.390;2023-03-23T09:08:10;25.38;;;14.68;;
55364;SDS011;41245;45.384;20.390;2023-03-23T09:10:37;26.45;;;12.57;;
55364;SDS011;41245;45.384;20.390;2023-03-23T09:13:04;19.23;;;13.00;;
55364;SDS011;41245;45.384;20.390;2023-03-23T09:15:30;22.30;;;11.63;;
55364;SDS011;41245;45.384;20.390;2023-03-23T09:17:56;20.27;;;12.57;;
55364;SDS011;41245;45.384;20.390;2023-03-23T09:20:24;24.85;;;12.63;;
55364;SDS011;41245;45.384;20.390;2023-03-23T09:22:51;14.95;;;10.60;;
55364;SDS011;41245;45.384;20.390;2023-03-23T09:25:18;17.00;;;12.23;;
55364;SDS011;41245;45.384;20.390;2023-03-23T09:27:47;17.45;;;11.43;;
55364;SDS011;41245;45.384;20.390;2023-03-23T09:30:17;15.73;;;11.48;;
55364;SDS011;41245;45.384;20.390;2023-03-23T09:32:44;21.58;;;11.77;;
55364;SDS011;41245;45.384;20.390;2023-03-23T09:35:10;14.38;;;11.15;;
55364;SDS011;41245;45.384;20.390;2023-03-23T09:37:37;18.75;;;11.43;;
55364;SDS011;41245;45.384;20.390;2023-03-23T09:40:04;14.68;;;9.48;;
55364;SDS011;41245;45.384;20.390;2023-03-23T09:45:04;21.92;;;10.85;;
55364;SDS011;41245;45.384;20.390;2023-03-23T09:50:32;17.75;;;10.02;;
55364;SDS011;41245;45.384;20.390;2023-03-23T09:55:18;16.15;;;7.95;;
55364;SDS011;41245;45.384;20.390;2023-03-23T10:03:01;14.98;;;7.38;;
55364;SDS011;41245;45.384;20.390;2023-03-23T10:05:37;8.57;;;7.00;;
55364;SDS011;41245;45.384;20.390;2023-03-23T10:08:10;13.10;;;8.30;;
55364;SDS011;41245;45.384;20.390;2023-03-23T10:15:53;10.55;;;7.15;;
55364;SDS011;41245;45.384;20.390;2023-03-23T10:18:23;12.75;;;7.72;;
55364;SDS011;41245;45.384;20.390;2023-03-23T10:20:58;10.20;;;7.50;;
55364;SDS011;41245;45.384;20.390;2023-03-23T10:26:22;8.57;;;6.80;;
55364;SDS011;41245;45.384;20.390;2023-03-23T10:32:16;11.57;;;7.30;;
55364;SDS011;41245;45.384;20.390;2023-03-23T10:35:01;12.07;;;7.22;;
55364;SDS011;41245;45.384;20.390;2023-03-23T10:37:34;11.57;;;6.55;;
55364;SDS011;41245;45.384;20.390;2023-03-23T10:40:04;11.70;;;6.65;;
55364;SDS011;41245;45.384;20.390;2023-03-23T10:42:35;13.25;;;6.35;;
55364;SDS011;41245;45.384;20.390;2023-03-23T10:50:55;9.85;;;6.60;;
55364;SDS011;41245;45.384;20.390;2023-03-23T10:53:33;11.32;;;6.30;;
55364;SDS011;41245;45.384;20.390;2023-03-23T10:56:02;6.68;;;5.70;;
55364;SDS011;41245;45.384;20.390;2023-03-23T10:58:30;9.60;;;6.05;;
55364;SDS011;41245;45.384;20.390;2023-03-23T11:01:01;11.50;;;5.93;;
55364;SDS011;41245;45.384;20.390;2023-03-23T11:06:08;9.80;;;6.93;;
55364;SDS011;41245;45.384;20.390;2023-03-23T11:08:37;15.60;;;6.07;;
55364;SDS011;41245;45.384;20.390;2023-03-23T11:11:18;9.70;;;4.72;;
55364;SDS011;41245;45.384;20.390;2023-03-23T11:13:48;12.82;;;4.97;;
55364;SDS011;41245;45.384;20.390;2023-03-23T11:16:26;10.45;;;6.80;;
55364;SDS011;41245;45.384;20.390;2023-03-23T11:18:59;10.82;;;6.15;;
55364;SDS011;41245;45.384;20.390;2023-03-23T11:21:36;11.13;;;5.40;;
55364;SDS011;41245;45.384;20.390;2023-03-23T11:24:03;8.35;;;4.93;;
55364;SDS011;41245;45.384;20.390;2023-03-23T11:26:31;10.60;;;5.35;;
55364;SDS011;41245;45.384;20.390;2023-03-23T11:29:06;8.38;;;5.65;;
55364;SDS011;41245;45.384;20.390;2023-03-23T11:31:53;9.07;;;5.10;;
55364;SDS011;41245;45.384;20.390;2023-03-23T11:34:30;18.13;;;6.03;;
55364;SDS011;41245;45.384;20.390;2023-03-23T11:37:01;11.23;;;5.00;;
55364;SDS011;41245;45.384;20.390;2023-03-23T11:39:29;8.60;;;4.80;;
55364;SDS011;41245;45.384;20.390;2023-03-23T11:41:57;8.45;;;4.50;;
55364;SDS011;41245;45.384;20.390;2023-03-23T11:44:31;12.82;;;5.65;;
55364;SDS011;41245;45.384;20.390;2023-03-23T11:47:10;13.90;;;5.80;;
55364;SDS011;41245;45.384;20.390;2023-03-23T11:50:17;6.40;;;5.57;;
55364;SDS011;41245;45.384;20.390;2023-03-23T11:58:13;8.50;;;5.60;;
55364;SDS011;41245;45.384;20.390;2023-03-23T12:00:56;8.43;;;5.05;;
55364;SDS011;41245;45.384;20.390;2023-03-23T12:06:01;7.35;;;4.45;;
55364;SDS011;41245;45.384;20.390;2023-03-23T12:08:42;16.05;;;6.00;;
55364;SDS011;41245;45.384;20.390;2023-03-23T12:19:19;11.07;;;5.50;;
55364;SDS011;41245;45.384;20.390;2023-03-23T12:24:33;9.32;;;5.18;;
55364;SDS011;41245;45.384;20.390;2023-03-23T12:27:33;9.73;;;5.95;;
55364;SDS011;41245;45.384;20.390;2023-03-23T12:38:02;9.68;;;5.25;;
55364;SDS011;41245;45.384;20.390;2023-03-23T12:48:37;8.85;;;5.38;;
55364;SDS011;41245;45.384;20.390;2023-03-23T13:01:37;10.23;;;5.80;;
55364;SDS011;41245;45.384;20.390;2023-03-23T13:04:14;12.90;;;5.10;;
55364;SDS011;41245;45.384;20.390;2023-03-23T13:06:46;5.00;;;4.18;;
55364;SDS011;41245;45.384;20.390;2023-03-23T13:09:20;11.57;;;5.38;;
55364;SDS011;41245;45.384;20.390;2023-03-23T13:12:13;14.05;;;4.82;;
55364;SDS011;41245;45.384;20.390;2023-03-23T13:17:43;13.10;;;6.18;;
55364;SDS011;41245;45.384;20.390;2023-03-23T13:20:40;7.03;;;4.82;;
55364;SDS011;41245;45.384;20.390;2023-03-23T13:23:20;11.75;;;5.53;;
55364;SDS011;41245;45.384;20.390;2023-03-23T13:28:28;14.27;;;7.20;;
55364;SDS011;41245;45.384;20.390;2023-03-23T13:31:00;9.43;;;4.13;;
55364;SDS011;41245;45.384;20.390;2023-03-23T13:33:29;12.75;;;5.72;;
55364;SDS011;41245;45.384;20.390;2023-03-23T13:36:04;9.15;;;4.82;;
55364;SDS011;41245;45.384;20.390;2023-03-23T13:38:35;9.52;;;4.82;;
55364;SDS011;41245;45.384;20.390;2023-03-23T13:41:06;8.50;;;5.32;;
55364;SDS011;41245;45.384;20.390;2023-03-23T13:43:35;14.25;;;6.20;;
55364;SDS011;41245;45.384;20.390;2023-03-23T13:48:41;15.25;;;8.00;;
55364;SDS011;41245;45.384;20.390;2023-03-23T13:54:19;9.23;;;4.75;;
55364;SDS011;41245;45.384;20.390;2023-03-23T13:59:55;6.70;;;4.40;;
55364;SDS011;41245;45.384;20.390;2023-03-23T14:02:40;10.32;;;4.93;;
55364;SDS011;41245;45.384;20.390;2023-03-23T14:05:19;5.53;;;4.78;;
55364;SDS011;41245;45.384;20.390;2023-03-23T14:07:56;7.93;;;4.85;;
55364;SDS011;41245;45.384;20.390;2023-03-23T14:11:00;12.73;;;5.28;;
55364;SDS011;41245;45.384;20.390;2023-03-23T14:16:44;14.73;;;4.75;;
55364;SDS011;41245;45.384;20.390;2023-03-23T14:19:27;7.13;;;4.38;;
55364;SDS011;41245;45.384;20.390;2023-03-23T14:24:25;50.95;;;8.82;;
55364;SDS011;41245;45.384;20.390;2023-03-23T14:27:08;5.18;;;4.55;;
55364;SDS011;41245;45.384;20.390;2023-03-23T14:29:35;12.52;;;5.38;;
55364;SDS011;41245;45.384;20.390;2023-03-23T14:32:01;8.20;;;5.13;;
55364;SDS011;41245;45.384;20.390;2023-03-23T14:34:28;10.02;;;4.82;;
55364;SDS011;41245;45.384;20.390;2023-03-23T14:36:56;8.63;;;4.93;;
55364;SDS011;41245;45.384;20.390;2023-03-23T14:39:24;7.00;;;4.90;;
55364;SDS011;41245;45.384;20.390;2023-03-23T14:41:53;11.05;;;5.50;;
55364;SDS011;41245;45.384;20.390;2023-03-23T14:44:27;8.88;;;5.70;;
55364;SDS011;41245;45.384;20.390;2023-03-23T14:47:01;6.10;;;4.90;;
55364;SDS011;41245;45.384;20.390;2023-03-23T14:49:39;13.38;;;4.45;;
55364;SDS011;41245;45.384;20.390;2023-03-23T14:54:37;7.97;;;4.80;;
55364;SDS011;41245;45.384;20.390;2023-03-23T14:57:20;9.00;;;4.68;;
55364;SDS011;41245;45.384;20.390;2023-03-23T14:59:54;5.80;;;5.18;;
55364;SDS011;41245;45.384;20.390;2023-03-23T15:02:35;10.48;;;5.03;;
55364;SDS011;41245;45.384;20.390;2023-03-23T15:05:09;23.30;;;5.55;;
55364;SDS011;41245;45.384;20.390;2023-03-23T15:07:40;11.48;;;6.00;;
55364;SDS011;41245;45.384;20.390;2023-03-23T15:12:38;7.57;;;5.80;;
55364;SDS011;41245;45.384;20.390;2023-03-23T15:15:05;8.60;;;4.80;;
55364;SDS011;41245;45.384;20.390;2023-03-23T15:17:41;21.38;;;6.30;;
55364;SDS011;41245;45.384;20.390;2023-03-23T15:20:20;7.70;;;4.85;;
55364;SDS011;41245;45.384;20.390;2023-03-23T15:22:48;11.05;;;6.07;;
55364;SDS011;41245;45.384;20.390;2023-03-23T15:25:29;8.57;;;5.68;;
55364;SDS011;41245;45.384;20.390;2023-03-23T15:27:57;18.42;;;6.07;;
55364;SDS011;41245;45.384;20.390;2023-03-23T15:32:52;10.68;;;5.75;;
55364;SDS011;41245;45.384;20.390;2023-03-23T15:35:21;14.48;;;5.32;;
55364;SDS011;41245;45.384;20.390;2023-03-23T15:37:49;13.00;;;5.95;;
55364;SDS011;41245;45.384;20.390;2023-03-23T15:40:23;26.35;;;6.28;;
55364;SDS011;41245;45.384;20.390;2023-03-23T15:43:04;13.70;;;6.55;;
55364;SDS011;41245;45.384;20.390;2023-03-23T15:45:50;9.30;;;6.65;;
55364;SDS011;41245;45.384;20.390;2023-03-23T15:48:53;19.35;;;9.48;;
55364;SDS011;41245;45.384;20.390;2023-03-23T15:51:32;14.55;;;8.35;;
55364;SDS011;41245;45.384;20.390;2023-03-23T15:53:57;9.43;;;6.60;;
55364;SDS011;41245;45.384;20.390;2023-03-23T15:56:23;16.40;;;6.40;;
55364;SDS011;41245;45.384;20.390;2023-03-23T15:58:50;10.23;;;6.07;;
55364;SDS011;41245;45.384;20.390;2023-03-23T16:01:18;13.82;;;5.60;;
55364;SDS011;41245;45.384;20.390;2023-03-23T16:03:49;12.13;;;6.63;;
55364;SDS011;41245;45.384;20.390;2023-03-23T16:06:36;13.60;;;7.40;;
55364;SDS011;41245;45.384;20.390;2023-03-23T16:09:02;13.63;;;6.97;;
55364;SDS011;41245;45.384;20.390;2023-03-23T16:11:29;17.15;;;7.07;;
55364;SDS011;41245;45.384;20.390;2023-03-23T16:13:56;9.30;;;5.85;;
55364;SDS011;41245;45.384;20.390;2023-03-23T16:16:24;11.38;;;7.13;;
55364;SDS011;41245;45.384;20.390;2023-03-23T16:18:51;15.73;;;6.88;;
55364;SDS011;41245;45.384;20.390;2023-03-23T16:21:17;16.65;;;6.88;;
55364;SDS011;41245;45.384;20.390;2023-03-23T16:23:43;17.45;;;6.75;;
55364;SDS011;41245;45.384;20.390;2023-03-23T16:26:10;19.38;;;7.93;;
55364;SDS011;41245;45.384;20.390;2023-03-23T16:28:37;14.80;;;6.57;;
55364;SDS011;41245;45.384;20.390;2023-03-23T16:31:03;12.88;;;6.15;;